Time;durP1;ratioP1;P1;durP2;ratioP2;P2;SDS_P1;SDS_P2;PMS_P1;PMS_P2;Temp;Humidity;BMP_temperature;BMP_pressure;BME280_temperature;BME280_humidity;BME280_pressure;Samples;Min_cycle;Max_cycle;Signal;HPM_P1;HPM_P2
2024/04/15 00:00:42;;;;;;;16.20;9.53;;;10.80;99.90;;;;;;5416348;26;20240;-87
2024/04/15 00:03:08;;;;;;;15.67;10.43;;;10.70;99.90;;;;;;5417455;26;20316;-90
2024/04/15 00:05:34;;;;;;;11.90;10.13;;;10.70;99.90;;;;;;5431372;26;20275;-87
2024/04/15 00:08:00;;;;;;;10.57;9.17;;;10.80;99.90;;;;;;5438228;26;20310;-86
2024/04/15 00:10:26;;;;;;;11.73;10.53;;;10.80;99.90;;;;;;5438732;26;20205;-85
2024/04/15 00:12:51;;;;;;;11.73;10.33;;;11.00;99.90;;;;;;5437997;26;20229;-87
2024/04/15 00:15:17;;;;;;;11.07;9.97;;;11.10;99.90;;;;;;5408806;26;20270;-86
2024/04/15 00:17:43;;;;;;;14.43;9.90;;;11.20;99.90;;;;;;5440951;26;20264;-86
2024/04/15 00:20:09;;;;;;;13.53;10.60;;;11.30;99.90;;;;;;5441891;26;20247;-87
2024/04/15 00:22:35;;;;;;;16.30;10.93;;;11.30;99.90;;;;;;5442012;26;20220;-86
2024/04/15 00:25:01;;;;;;;15.50;9.80;;;11.30;99.90;;;;;;5441960;26;20227;-86
2024/04/15 00:27:27;;;;;;;12.57;10.67;;;11.30;99.90;;;;;;5442169;26;20207;-85
2024/04/15 00:29:52;;;;;;;15.13;10.67;;;11.30;99.90;;;;;;5441913;26;20224;-86
2024/04/15 00:32:18;;;;;;;19.30;10.93;;;11.30;99.90;;;;;;5442200;26;20222;-85
2024/04/15 00:34:44;;;;;;;16.73;10.10;;;11.20;99.90;;;;;;5441913;26;20233;-85
2024/04/15 00:37:10;;;;;;;16.83;10.87;;;11.10;99.90;;;;;;5442304;26;20268;-86
2024/04/15 00:39:36;;;;;;;15.63;11.20;;;11.00;99.90;;;;;;5439337;26;20246;-90
2024/04/15 00:42:02;;;;;;;18.90;11.10;;;10.90;99.90;;;;;;5420392;26;20228;-89
2024/04/15 00:44:34;;;;;;;15.40;11.33;;;10.90;99.90;;;;;;5420866;26;20231;-89
2024/04/15 00:47:02;;;;;;;18.87;11.60;;;10.80;99.90;;;;;;5420942;26;20302;-89
2024/04/15 00:49:32;;;;;;;16.70;11.77;;;10.80;99.90;;;;;;5420785;26;20258;-90
2024/04/15 00:51:59;;;;;;;16.60;11.67;;;10.80;99.90;;;;;;5420224;26;20246;-89
2024/04/15 00:54:26;;;;;;;16.13;11.27;;;10.80;99.90;;;;;;5419564;26;20545;-88
2024/04/15 00:56:51;;;;;;;16.37;11.80;;;10.70;99.90;;;;;;5420135;26;20561;-90
2024/04/15 00:59:18;;;;;;;17.67;12.07;;;10.70;99.90;;;;;;5457997;21;20266;-70
2024/04/15 01:01:44;;;;;;;19.70;12.10;;;10.70;99.90;;;;;;5478633;26;20273;-70
2024/04/15 01:04:10;;;;;;;16.47;12.50;;;10.70;99.90;;;;;;5450345;26;20279;-70
2024/04/15 01:06:35;;;;;;;19.57;13.07;;;10.70;99.90;;;;;;5451900;26;20228;-70
2024/04/15 01:09:01;;;;;;;14.63;12.33;;;10.70;99.90;;;;;;5451741;26;20602;-69
2024/04/15 01:11:30;;;;;;;20.70;12.57;;;10.70;99.90;;;;;;5455394;21;20269;-89
2024/04/15 01:13:57;;;;;;;16.30;11.77;;;10.60;99.90;;;;;;5456984;26;20227;-90
2024/04/15 01:16:33;;;;;;;13.53;12.10;;;10.60;99.90;;;;;;5427453;26;20239;-89
2024/04/15 01:18:58;;;;;;;14.87;12.27;;;10.60;99.90;;;;;;5427983;26;20222;-88
2024/04/15 01:21:24;;;;;;;14.60;12.70;;;10.50;99.90;;;;;;5455986;26;20281;-90
2024/04/15 01:23:50;;;;;;;16.50;12.97;;;10.50;99.90;;;;;;5455559;26;20336;-89
2024/04/15 01:26:15;;;;;;;19.90;13.07;;;10.60;99.90;;;;;;5456665;26;20242;-88
2024/04/15 01:28:42;;;;;;;15.20;12.93;;;10.60;99.90;;;;;;5472941;26;20287;-85
2024/04/15 01:31:07;;;;;;;17.63;13.67;;;10.60;99.90;;;;;;5477402;26;20199;-86
2024/04/15 01:33:33;;;;;;;15.17;13.43;;;10.60;99.90;;;;;;5458593;26;20219;-89
2024/04/15 01:35:59;;;;;;;16.67;14.93;;;10.50;99.90;;;;;;5457851;26;20282;-89
2024/04/15 01:38:24;;;;;;;20.57;14.40;;;10.40;99.90;;;;;;5456074;26;20278;-90
2024/04/15 01:40:50;;;;;;;24.20;15.30;;;10.20;99.90;;;;;;5457283;26;20318;-88
2024/04/15 01:43:17;;;;;;;17.37;14.07;;;10.10;99.90;;;;;;5454713;26;20231;-88
2024/04/15 01:45:43;;;;;;;16.53;14.83;;;10.00;99.90;;;;;;5460310;26;20327;-88
2024/04/15 01:48:09;;;;;;;22.47;14.87;;;9.90;99.90;;;;;;5455744;26;20279;-89
2024/04/15 01:50:34;;;;;;;22.20;15.30;;;9.90;99.90;;;;;;5454378;26;20272;-89
2024/04/15 01:53:00;;;;;;;18.63;15.37;;;9.80;99.90;;;;;;5454815;26;20219;-89
2024/04/15 01:55:26;;;;;;;23.30;16.33;;;9.70;99.90;;;;;;5459080;26;20274;-89
2024/04/15 01:57:52;;;;;;;24.07;17.07;;;9.70;99.90;;;;;;5457957;26;20231;-88
2024/04/15 02:00:17;;;;;;;24.37;16.47;;;9.60;99.90;;;;;;5454693;26;20719;-88
2024/04/15 02:02:43;;;;;;;19.17;17.00;;;9.70;99.90;;;;;;5467759;26;20227;-85
2024/04/15 02:05:08;;;;;;;26.57;18.70;;;9.70;99.90;;;;;;5464124;26;20251;-89
2024/04/15 02:08:51;;;;;;;24.37;18.83;;;9.70;99.90;;;;;;5459759;26;20219;-93
2024/04/15 02:11:16;;;;;;;21.23;19.03;;;9.90;99.90;;;;;;5457618;26;20335;-88
2024/04/15 02:13:42;;;;;;;22.53;19.23;;;10.00;99.90;;;;;;5456123;26;20231;-88
2024/04/15 02:16:07;;;;;;;24.23;18.83;;;10.00;99.90;;;;;;5461221;26;20239;-88
2024/04/15 02:18:33;;;;;;;25.30;19.10;;;10.10;99.90;;;;;;5455888;26;20222;-89
2024/04/15 02:21:00;;;;;;;23.33;19.30;;;10.10;99.90;;;;;;5455773;26;20254;-89
2024/04/15 02:23:25;;;;;;;22.47;18.60;;;10.20;99.90;;;;;;5471321;26;20263;-89
2024/04/15 02:25:51;;;;;;;21.80;18.67;;;10.20;99.90;;;;;;5456612;26;20270;-88
2024/04/15 02:28:17;;;;;;;25.30;19.53;;;10.20;99.90;;;;;;5454848;26;20219;-88
2024/04/15 02:30:43;;;;;;;26.17;18.60;;;10.10;99.90;;;;;;5455376;26;20218;-87
2024/04/15 02:33:09;;;;;;;24.27;19.90;;;10.10;99.90;;;;;;5459591;26;20211;-87
2024/04/15 02:35:36;;;;;;;23.87;18.93;;;10.00;99.90;;;;;;5455455;26;20274;-88
2024/04/15 02:38:03;;;;;;;23.67;17.70;;;10.00;99.90;;;;;;5456520;26;20734;-89
2024/04/15 02:40:28;;;;;;;22.03;18.17;;;10.00;99.90;;;;;;5449592;26;20244;-88
2024/04/15 02:42:54;;;;;;;24.73;17.73;;;9.90;99.90;;;;;;5440356;26;20273;-87
2024/04/15 02:45:19;;;;;;;23.07;17.23;;;9.80;99.90;;;;;;5456382;26;20223;-88
2024/04/15 02:47:45;;;;;;;28.77;17.97;;;9.70;99.90;;;;;;5455995;26;20708;-88
2024/04/15 02:50:11;;;;;;;22.77;17.13;;;9.60;99.90;;;;;;5457665;26;20207;-88
2024/04/15 02:52:36;;;;;;;22.67;19.57;;;9.60;99.90;;;;;;5457962;26;20235;-87
2024/04/15 02:55:02;;;;;;;21.60;18.17;;;9.50;99.90;;;;;;5455763;26;20230;-88
2024/04/15 02:57:28;;;;;;;24.50;18.03;;;9.40;99.90;;;;;;5457937;26;20254;-88
2024/04/15 02:59:54;;;;;;;22.87;20.03;;;9.40;99.90;;;;;;5457453;26;20227;-88
2024/04/15 03:02:20;;;;;;;19.70;17.60;;;9.30;99.90;;;;;;5456260;26;20227;-88
2024/04/15 03:04:46;;;;;;;28.47;19.87;;;9.20;99.90;;;;;;5455481;26;20281;-88
2024/04/15 03:07:12;;;;;;;27.93;19.30;;;9.20;99.90;;;;;;5456959;26;20285;-88
2024/04/15 03:09:37;;;;;;;25.97;19.30;;;9.20;99.90;;;;;;5454584;26;20219;-87
2024/04/15 03:12:03;;;;;;;27.13;19.10;;;9.20;99.90;;;;;;5454801;26;20265;-88
2024/04/15 03:14:30;;;;;;;23.50;19.33;;;9.10;99.90;;;;;;5455141;26;20681;-88
2024/04/15 03:16:55;;;;;;;26.13;19.50;;;9.10;99.90;;;;;;5455521;26;20235;-89
2024/04/15 03:19:21;;;;;;;31.73;20.03;;;9.00;99.90;;;;;;5456611;26;20257;-88
2024/04/15 03:21:48;;;;;;;31.50;20.00;;;9.00;99.90;;;;;;5449733;26;20263;-88
2024/04/15 03:24:14;;;;;;;23.23;19.43;;;8.90;99.90;;;;;;5420492;26;20236;-87
2024/04/15 03:26:40;;;;;;;26.97;21.03;;;8.90;99.90;;;;;;5449033;26;20281;-87
2024/04/15 03:29:06;;;;;;;26.13;20.53;;;8.90;99.90;;;;;;5448668;26;20654;-88
2024/04/15 03:31:33;;;;;;;31.13;20.30;;;8.80;99.90;;;;;;5420109;26;20268;-87
2024/04/15 03:33:58;;;;;;;23.20;20.63;;;8.80;99.90;;;;;;5448795;26;20228;-88
2024/04/15 03:36:24;;;;;;;28.00;20.63;;;8.80;99.90;;;;;;5476002;26;20236;-88
2024/04/15 03:38:49;;;;;;;31.77;21.67;;;8.80;99.90;;;;;;5421149;26;20276;-86
2024/04/15 03:41:15;;;;;;;25.87;20.20;;;8.70;99.90;;;;;;5419951;26;20231;-88
2024/04/15 03:43:41;;;;;;;29.10;21.00;;;8.70;99.90;;;;;;5419909;26;20236;-88
2024/04/15 03:46:06;;;;;;;28.07;21.17;;;8.70;99.90;;;;;;5482665;26;20292;-88
2024/04/15 03:48:32;;;;;;;25.67;19.70;;;8.60;99.90;;;;;;5454058;26;20265;-86
2024/04/15 03:50:57;;;;;;;24.20;18.73;;;8.50;99.90;;;;;;5465575;26;20285;-87
2024/04/15 03:53:23;;;;;;;26.17;19.50;;;8.50;99.90;;;;;;5468841;26;20215;-87
2024/04/15 03:55:55;;;;;;;19.77;17.67;;;8.40;99.90;;;;;;5466312;26;20253;-88
2024/04/15 03:58:21;;;;;;;26.30;19.10;;;8.30;99.90;;;;;;5465262;26;20230;-87
2024/04/15 04:00:48;;;;;;;28.43;19.33;;;8.30;99.90;;;;;;5461887;26;20231;-88
2024/04/15 04:03:15;;;;;;;27.03;18.67;;;8.30;99.90;;;;;;5431064;26;20714;-88
2024/04/15 04:05:41;;;;;;;29.57;19.17;;;8.30;99.90;;;;;;5461180;26;20273;-86
2024/04/15 04:08:08;;;;;;;21.50;18.07;;;8.20;99.90;;;;;;5462162;26;20207;-87
2024/04/15 04:10:33;;;;;;;24.93;19.00;;;8.20;99.90;;;;;;5459566;26;20602;-87
2024/04/15 04:12:59;;;;;;;21.20;17.37;;;8.10;99.90;;;;;;5458870;26;20242;-87
2024/04/15 04:15:25;;;;;;;27.03;18.80;;;8.10;99.90;;;;;;5460665;26;20236;-87
2024/04/15 04:17:51;;;;;;;21.23;17.00;;;8.10;99.90;;;;;;5458641;26;20261;-86
2024/04/15 04:20:17;;;;;;;22.23;17.37;;;8.00;99.90;;;;;;5458922;26;20219;-87
2024/04/15 04:22:43;;;;;;;22.97;17.20;;;8.00;99.90;;;;;;5428819;26;20250;-87
2024/04/15 04:25:09;;;;;;;20.73;15.57;;;8.00;99.90;;;;;;5459018;26;20270;-87
2024/04/15 04:27:40;;;;;;;24.27;15.63;;;7.80;99.90;;;;;;5461781;26;20246;-91
2024/04/15 04:30:06;;;;;;;21.13;15.20;;;7.80;99.90;;;;;;5461782;26;20327;-88
2024/04/15 04:32:34;;;;;;;19.17;14.83;;;7.70;99.90;;;;;;5463511;26;20211;-87
2024/04/15 04:34:59;;;;;;;20.57;14.17;;;7.70;99.90;;;;;;5460278;26;20226;-87
2024/04/15 04:37:26;;;;;;;23.17;15.40;;;7.60;99.90;;;;;;5460047;26;20759;-86
2024/04/15 04:39:52;;;;;;;23.23;14.53;;;7.60;99.90;;;;;;5460281;26;20218;-87
2024/04/15 04:42:17;;;;;;;17.37;13.87;;;7.60;99.90;;;;;;5462405;26;20589;-89
2024/04/15 04:44:43;;;;;;;17.60;12.33;;;7.60;99.90;;;;;;5463193;26;20265;-86
2024/04/15 04:47:09;;;;;;;17.80;12.53;;;7.50;99.90;;;;;;5460306;26;20239;-86
2024/04/15 04:49:34;;;;;;;19.43;13.57;;;7.50;99.90;;;;;;5461972;26;20305;-87
2024/04/15 04:52:00;;;;;;;22.03;13.47;;;7.50;99.90;;;;;;5456037;26;20248;-87
2024/04/15 04:54:26;;;;;;;14.80;12.83;;;7.50;99.90;;;;;;5454381;26;20251;-87
2024/04/15 04:56:52;;;;;;;16.67;12.73;;;7.50;99.90;;;;;;5453154;26;20274;-88
2024/04/15 04:59:18;;;;;;;17.20;12.80;;;7.50;99.90;;;;;;5425252;26;20264;-87
2024/04/15 05:01:46;;;;;;;20.07;13.33;;;7.50;99.90;;;;;;5425053;26;20339;-87
2024/04/15 05:04:12;;;;;;;15.17;12.50;;;7.50;99.90;;;;;;5453315;26;20267;-87
2024/04/15 05:06:38;;;;;;;16.97;12.77;;;7.60;99.90;;;;;;5458610;26;20237;-87
2024/04/15 05:09:03;;;;;;;16.83;13.33;;;7.50;99.90;;;;;;5424144;26;20208;-87
2024/04/15 05:11:29;;;;;;;13.73;12.13;;;7.60;99.90;;;;;;5422437;26;20271;-87
2024/04/15 05:13:54;;;;;;;16.47;11.27;;;7.60;99.90;;;;;;5427810;26;20231;-88
2024/04/15 05:16:22;;;;;;;19.67;12.20;;;7.70;99.90;;;;;;5468061;26;20274;-91
2024/04/15 05:18:48;;;;;;;12.57;11.20;;;7.70;99.90;;;;;;5468237;26;20223;-86
2024/04/15 05:21:16;;;;;;;18.07;11.07;;;7.80;99.90;;;;;;5458585;26;20215;-88
2024/04/15 05:23:44;;;;;;;12.83;11.03;;;7.90;99.90;;;;;;5469866;26;20207;-87
2024/04/15 05:26:10;;;;;;;14.07;10.43;;;7.90;99.90;;;;;;5464270;26;20223;-87
2024/04/15 05:28:39;;;;;;;15.23;10.30;;;7.90;99.90;;;;;;5461726;26;20219;-91
2024/04/15 05:31:05;;;;;;;18.67;9.70;;;7.90;99.90;;;;;;5468963;26;20292;-86
2024/04/15 05:33:46;;;;;;;15.07;9.77;;;7.90;99.90;;;;;;5468780;26;20207;-87
2024/04/15 05:36:13;;;;;;;11.63;9.70;;;8.00;99.90;;;;;;5461258;26;20273;-88
2024/04/15 05:38:39;;;;;;;18.53;9.80;;;8.00;99.90;;;;;;5467725;26;20258;-88
2024/04/15 05:41:04;;;;;;;10.77;8.47;;;8.00;99.90;;;;;;5465554;26;20231;-87
2024/04/15 05:43:30;;;;;;;9.97;8.83;;;8.10;99.90;;;;;;5466702;26;20308;-87
2024/04/15 05:45:56;;;;;;;13.57;8.83;;;8.20;99.90;;;;;;5464414;26;20219;-88
2024/04/15 05:48:21;;;;;;;14.10;8.43;;;8.30;99.90;;;;;;5462650;26;20700;-86
2024/04/15 05:50:47;;;;;;;10.33;7.50;;;8.40;99.90;;;;;;5462115;26;20269;-87
2024/04/15 05:53:14;;;;;;;12.10;7.50;;;8.50;99.90;;;;;;5461591;26;20302;-88
2024/04/15 05:55:43;;;;;;;11.53;7.27;;;8.50;99.90;;;;;;5464498;26;20276;-87
2024/04/15 05:58:09;;;;;;;14.20;7.10;;;8.60;99.90;;;;;;5470388;26;20274;-88
2024/04/15 06:00:35;;;;;;;9.80;6.37;;;8.70;99.90;;;;;;5462006;26;20713;-89
2024/04/15 06:03:00;;;;;;;10.10;6.40;;;8.80;99.90;;;;;;5467998;26;20308;-85
2024/04/15 06:05:26;;;;;;;9.50;7.10;;;8.90;99.90;;;;;;5468074;26;20227;-84
2024/04/15 06:07:52;;;;;;;8.90;6.83;;;9.00;99.90;;;;;;5441898;26;20247;-87
2024/04/15 06:10:19;;;;;;;10.10;6.27;;;9.10;99.90;;;;;;5426754;26;20573;-89
2024/04/15 06:12:45;;;;;;;8.80;5.87;;;9.20;99.90;;;;;;5430811;26;20266;-91
2024/04/15 06:15:10;;;;;;;10.63;6.70;;;9.20;99.90;;;;;;5439643;26;20231;-88
2024/04/15 06:17:36;;;;;;;11.33;6.10;;;9.30;99.90;;;;;;5468155;26;20235;-87
2024/04/15 06:20:02;;;;;;;5.97;4.97;;;9.40;99.90;;;;;;5469845;26;20223;-88
2024/04/15 06:22:27;;;;;;;10.40;6.10;;;9.40;99.90;;;;;;5471210;26;20215;-87
2024/04/15 06:24:53;;;;;;;9.87;5.30;;;9.40;99.90;;;;;;5475215;26;20199;-85
2024/04/15 06:27:19;;;;;;;11.30;5.80;;;9.40;99.90;;;;;;5475869;26;20734;-85
2024/04/15 06:29:44;;;;;;;8.93;5.43;;;9.50;99.90;;;;;;5475681;26;20229;-86
2024/04/15 06:32:29;;;;;;;;;;;;;;;;;;;;;
2024/04/15 06:34:54;;;;;;;12.80;5.40;;;9.40;99.90;;;;;;5322370;26;20619;-73
2024/04/15 06:37:20;;;;;;;6.40;5.13;;;9.40;99.90;;;;;;5342895;26;20264;-72
2024/04/15 06:39:45;;;;;;;9.20;5.70;;;9.50;99.90;;;;;;5325219;26;20745;-74
2024/04/15 06:42:11;;;;;;;12.83;5.30;;;9.50;99.90;;;;;;5341097;26;20233;-72
2024/04/15 06:44:37;;;;;;;11.40;6.10;;;9.60;99.90;;;;;;5379352;26;20271;-72
2024/04/15 06:49:37;;;;;;;9.60;5.80;;;9.60;99.90;;;;;;5447557;26;20601;-71
2024/04/15 06:52:02;;;;;;;8.60;5.40;;;9.60;99.90;;;;;;5450188;26;20219;-76
2024/04/15 06:54:28;;;;;;;8.20;5.07;;;9.70;99.90;;;;;;5449770;26;20308;-72
2024/04/15 06:56:53;;;;;;;11.80;5.20;;;9.90;99.90;;;;;;5447507;26;20235;-76
2024/04/15 06:59:19;;;;;;;11.60;5.13;;;9.90;99.90;;;;;;5418026;26;20223;-74
2024/04/15 07:01:45;;;;;;;7.70;4.60;;;10.00;99.90;;;;;;5450266;26;20698;-75
2024/04/15 07:04:10;;;;;;;8.30;4.87;;;10.20;99.90;;;;;;5449981;26;20215;-75
2024/04/15 07:06:36;;;;;;;9.53;4.70;;;10.30;99.90;;;;;;5450428;26;20270;-74
2024/04/15 07:09:01;;;;;;;8.10;4.63;;;10.40;99.90;;;;;;5449427;26;20335;-73
2024/04/15 07:11:27;;;;;;;6.63;5.23;;;10.40;99.90;;;;;;5450664;26;20215;-76
2024/04/15 07:13:53;;;;;;;11.90;5.33;;;10.30;99.90;;;;;;5449726;26;20322;-76
2024/04/15 07:16:18;;;;;;;7.73;4.20;;;10.40;99.90;;;;;;5449951;26;20273;-72
2024/04/15 07:18:44;;;;;;;8.50;4.40;;;10.50;99.90;;;;;;5449701;26;20223;-75
2024/04/15 07:21:09;;;;;;;8.37;4.37;;;10.50;99.90;;;;;;5449767;26;20215;-77
2024/04/15 07:23:35;;;;;;;8.93;4.60;;;10.70;99.90;;;;;;5449886;26;20328;-77
2024/04/15 07:26:01;;;;;;;6.77;4.20;;;10.80;99.90;;;;;;5449888;26;21140;-73
2024/04/15 07:28:27;;;;;;;6.97;4.80;;;10.80;99.90;;;;;;5453982;26;20363;-77
2024/04/15 07:31:00;;;;;;;6.27;4.60;;;11.00;99.90;;;;;;5452609;26;20311;-72
2024/04/15 07:33:26;;;;;;;4.80;3.90;;;11.20;99.90;;;;;;5452337;26;20227;-72
2024/04/15 07:35:58;;;;;;;11.03;3.93;;;11.40;99.90;;;;;;5452165;26;20335;-76
2024/04/15 07:38:23;;;;;;;9.00;3.90;;;11.80;99.90;;;;;;5453241;26;20211;-77
2024/04/15 07:40:49;;;;;;;8.57;4.30;;;12.40;99.90;;;;;;5453547;26;20327;-72
2024/04/15 07:43:15;;;;;;;5.93;3.80;;;13.20;99.90;;;;;;5453356;26;20223;-70
2024/04/15 07:45:41;;;;;;;9.90;3.83;;;13.60;99.90;;;;;;5451633;26;20262;-74
2024/04/15 07:48:07;;;;;;;8.03;3.90;;;14.00;99.90;;;;;;5452883;26;20235;-73
2024/04/15 07:50:33;;;;;;;7.13;3.90;;;14.50;99.90;;;;;;5451464;26;20219;-73
2024/04/15 07:52:59;;;;;;;7.23;4.07;;;14.80;99.90;;;;;;5454161;26;20967;-73
2024/04/15 07:55:25;;;;;;;12.40;3.70;;;15.10;99.90;;;;;;5480469;26;20568;-76
2024/04/15 07:57:50;;;;;;;7.80;3.97;;;15.20;99.90;;;;;;5452625;26;20219;-73
2024/04/15 08:00:17;;;;;;;7.97;3.67;;;15.00;99.90;;;;;;5452513;26;20258;-75
2024/04/15 08:02:43;;;;;;;4.47;3.17;;;14.70;99.90;;;;;;5452358;26;20220;-73
2024/04/15 08:05:09;;;;;;;7.17;4.10;;;14.80;99.90;;;;;;5451846;26;20257;-73
2024/04/15 08:07:35;;;;;;;7.27;3.90;;;14.70;99.90;;;;;;5453852;26;20702;-75
2024/04/15 08:10:01;;;;;;;9.63;4.03;;;14.90;99.90;;;;;;5453294;26;20265;-75
2024/04/15 08:12:26;;;;;;;7.17;3.27;;;15.20;99.90;;;;;;5453941;26;20211;-73
2024/04/15 08:14:52;;;;;;;8.37;3.57;;;15.60;99.90;;;;;;5452434;26;20227;-76
2024/04/15 08:17:17;;;;;;;9.03;3.80;;;15.60;99.90;;;;;;5453297;26;20227;-75
2024/04/15 08:19:43;;;;;;;5.73;3.40;;;15.40;99.90;;;;;;5459649;26;20628;-75
2024/04/15 08:22:08;;;;;;;5.30;3.30;;;15.60;99.90;;;;;;5491136;26;20256;-76
2024/04/15 08:24:34;;;;;;;7.27;3.63;;;15.80;99.90;;;;;;5491214;26;20214;-77
2024/04/15 08:27:00;;;;;;;7.60;3.30;;;16.10;99.90;;;;;;5490405;26;20269;-73
2024/04/15 08:29:25;;;;;;;9.40;3.67;;;16.20;99.90;;;;;;5471065;26;20219;-72
2024/04/15 08:31:51;;;;;;;6.27;3.40;;;16.20;99.90;;;;;;5452096;26;20679;-71
2024/04/15 08:34:16;;;;;;;9.67;4.03;;;15.90;99.90;;;;;;5452880;26;20219;-75
2024/04/15 08:36:42;;;;;;;7.43;3.40;;;15.70;99.90;;;;;;5454061;26;20227;-74
2024/04/15 08:39:08;;;;;;;6.47;3.60;;;15.60;99.90;;;;;;5451991;26;20235;-75
2024/04/15 08:41:48;;;;;;;7.90;4.30;;;15.00;99.90;;;;;;5453478;26;20273;-71
2024/04/15 08:44:18;;;;;;;6.23;3.60;;;14.60;99.90;;;;;;5453580;26;20270;-73
2024/04/15 08:46:46;;;;;;;5.00;3.70;;;14.20;99.90;;;;;;5452957;26;20763;-71
2024/04/15 08:49:13;;;;;;;9.93;3.40;;;14.00;99.90;;;;;;5452265;26;20240;-74
2024/04/15 08:51:39;;;;;;;6.80;3.10;;;13.80;99.90;;;;;;5421724;26;20315;-75
2024/04/15 08:54:05;;;;;;;4.13;2.93;;;13.60;99.90;;;;;;5453671;26;20223;-73
2024/04/15 08:56:33;;;;;;;8.00;3.80;;;13.70;99.90;;;;;;5452966;26;20227;-73
2024/04/15 08:58:59;;;;;;;5.53;3.53;;;13.80;99.90;;;;;;5452032;26;20254;-69
2024/04/15 09:01:26;;;;;;;6.53;3.40;;;13.90;99.90;;;;;;5452718;26;20622;-73
2024/04/15 09:03:52;;;;;;;7.73;3.57;;;13.80;99.90;;;;;;5451980;26;20598;-73
2024/04/15 09:06:20;;;;;;;7.07;3.50;;;14.10;99.90;;;;;;5452323;26;20231;-69
2024/04/15 09:08:45;;;;;;;5.43;3.20;;;14.10;99.90;;;;;;5452185;26;20211;-70
2024/04/15 09:11:13;;;;;;;8.70;3.70;;;14.20;99.90;;;;;;5452085;26;20258;-71
2024/04/15 09:13:39;;;;;;;8.10;3.93;;;14.20;99.90;;;;;;5453065;26;20214;-75
2024/04/15 09:16:05;;;;;;;8.40;3.67;;;14.30;99.90;;;;;;5451982;26;20277;-72
2024/04/15 09:18:31;;;;;;;8.23;4.03;;;14.40;99.90;;;;;;5452667;26;20208;-76
2024/04/15 09:20:57;;;;;;;7.43;3.53;;;14.60;99.90;;;;;;5451736;26;20235;-71
2024/04/15 09:23:23;;;;;;;8.90;3.47;;;14.70;99.90;;;;;;5452336;26;20595;-75
2024/04/15 09:25:49;;;;;;;4.53;3.20;;;14.70;99.90;;;;;;5452381;26;20339;-72
2024/04/15 09:28:16;;;;;;;8.03;3.43;;;15.00;99.90;;;;;;5453014;26;20223;-71
2024/04/15 09:30:42;;;;;;;9.10;3.53;;;15.20;99.90;;;;;;5450696;26;20223;-76
2024/04/15 09:33:11;;;;;;;6.40;3.40;;;15.20;99.90;;;;;;5453421;26;20208;-69
2024/04/15 09:35:38;;;;;;;9.10;3.40;;;15.30;99.90;;;;;;5452871;26;20219;-75
2024/04/15 09:38:05;;;;;;;8.37;3.47;;;15.50;99.90;;;;;;5452808;26;20215;-71
2024/04/15 09:40:33;;;;;;;7.40;2.93;;;15.60;99.90;;;;;;5451731;26;20227;-78
2024/04/15 09:42:59;;;;;;;7.60;3.10;;;15.60;99.90;;;;;;5452720;26;20271;-75
2024/04/15 09:45:25;;;;;;;13.37;3.77;;;15.70;99.90;;;;;;5451504;26;20725;-76
2024/04/15 09:47:52;;;;;;;7.67;3.50;;;15.50;99.90;;;;;;5451812;26;20839;-75
2024/04/15 09:50:22;;;;;;;9.07;3.50;;;15.70;99.90;;;;;;5451319;26;20207;-74
2024/04/15 09:52:56;;;;;;;9.87;3.50;;;15.80;99.90;;;;;;5451786;26;20207;-71
2024/04/15 09:55:45;;;;;;;9.50;3.20;;;15.80;99.90;;;;;;5450928;26;20230;-72
2024/04/15 09:58:15;;;;;;;7.67;3.07;;;15.50;99.90;;;;;;5451915;26;20563;-74
2024/04/15 10:00:42;;;;;;;8.63;3.37;;;15.60;99.90;;;;;;5452394;26;20536;-75
2024/04/15 10:03:13;;;;;;;6.27;3.10;;;15.50;99.90;;;;;;5451387;26;20211;-74
2024/04/15 10:05:40;;;;;;;9.30;3.00;;;15.50;99.90;;;;;;5451187;26;20699;-75
2024/04/15 10:08:10;;;;;;;5.43;3.03;;;15.20;99.90;;;;;;5451620;26;20200;-74
2024/04/15 10:10:36;;;;;;;8.67;3.30;;;14.80;99.90;;;;;;5451475;26;20323;-72
2024/04/15 10:13:04;;;;;;;8.20;3.53;;;14.60;99.90;;;;;;5450856;26;20690;-72
2024/04/15 10:15:30;;;;;;;6.73;3.57;;;14.50;99.90;;;;;;5450934;26;20223;-76
2024/04/15 10:18:04;;;;;;;7.10;3.10;;;14.50;99.90;;;;;;5452105;26;20315;-75
2024/04/15 10:20:41;;;;;;;7.17;3.70;;;14.60;99.90;;;;;;5451021;26;20223;-74
2024/04/15 10:23:11;;;;;;;5.80;3.10;;;14.50;99.90;;;;;;5451107;26;20257;-75
2024/04/15 10:25:38;;;;;;;8.20;3.50;;;14.70;99.90;;;;;;5451636;26;20262;-72
2024/04/15 10:28:11;;;;;;;7.43;3.30;;;14.80;99.90;;;;;;5451013;26;20215;-73
2024/04/15 10:30:38;;;;;;;5.17;3.13;;;14.90;99.90;;;;;;5451203;26;20279;-76
2024/04/15 10:33:06;;;;;;;7.77;3.00;;;15.30;99.90;;;;;;5450229;26;20219;-73
2024/04/15 10:35:34;;;;;;;6.73;3.27;;;15.40;99.90;;;;;;5450611;26;20323;-75
2024/04/15 10:38:02;;;;;;;5.27;3.03;;;15.60;99.90;;;;;;5450912;26;20331;-75
2024/04/15 10:40:35;;;;;;;7.00;2.80;;;15.60;99.90;;;;;;5450868;26;20665;-71
2024/04/15 10:43:00;;;;;;;9.70;2.90;;;15.50;99.90;;;;;;5450757;26;20551;-73
2024/04/15 10:45:26;;;;;;;7.07;2.60;;;15.30;99.90;;;;;;5450532;26;20223;-72
2024/04/15 10:47:53;;;;;;;4.97;2.80;;;15.40;99.90;;;;;;5450177;26;20223;-78
2024/04/15 10:50:19;;;;;;;4.30;3.47;;;15.60;99.90;;;;;;5450436;26;20556;-74
2024/04/15 10:52:44;;;;;;;6.30;3.07;;;15.60;99.90;;;;;;5451099;26;20223;-74
2024/04/15 10:55:10;;;;;;;6.43;2.93;;;15.60;99.90;;;;;;5450425;26;20211;-73
2024/04/15 10:57:39;;;;;;;5.17;3.10;;;16.00;99.90;;;;;;5450860;26;20245;-72
2024/04/15 11:00:12;;;;;;;5.73;2.90;;;16.10;99.90;;;;;;5449985;26;20596;-71
2024/04/15 11:02:50;;;;;;;4.97;2.83;;;16.20;99.90;;;;;;5450802;26;20665;-72
2024/04/15 11:05:16;;;;;;;5.47;2.80;;;16.20;99.90;;;;;;5448445;26;20225;-72
2024/04/15 11:07:42;;;;;;;6.43;2.97;;;16.20;99.90;;;;;;5450208;26;20275;-73
2024/04/15 11:10:11;;;;;;;7.67;2.63;;;16.30;99.90;;;;;;5449499;26;20211;-74
2024/04/15 11:12:38;;;;;;;5.53;2.70;;;16.50;99.90;;;;;;5448896;26;20211;-73
2024/04/15 11:15:08;;;;;;;4.57;2.47;;;16.90;99.90;;;;;;5449471;26;20612;-73
2024/04/15 11:17:35;;;;;;;4.93;2.40;;;17.20;99.90;;;;;;5450304;26;20332;-72
2024/04/15 11:20:08;;;;;;;5.07;2.90;;;17.40;99.20;;;;;;5450459;26;20262;-77
2024/04/15 11:22:35;;;;;;;4.27;2.53;;;17.20;97.10;;;;;;5450100;26;20219;-70
2024/04/15 11:25:01;;;;;;;6.63;2.80;;;17.10;97.20;;;;;;5450200;26;20496;-72
2024/04/15 11:27:31;;;;;;;6.60;2.70;;;17.00;96.90;;;;;;5450020;26;20288;-74
2024/04/15 11:29:58;;;;;;;4.73;2.73;;;17.20;97.30;;;;;;5449424;26;20211;-77
2024/04/15 11:32:26;;;;;;;8.00;3.10;;;17.50;96.60;;;;;;5450181;26;20218;-74
2024/04/15 11:34:52;;;;;;;5.73;2.43;;;17.50;95.90;;;;;;5449653;26;20261;-72
2024/04/15 11:37:18;;;;;;;4.80;2.40;;;17.60;95.30;;;;;;5450345;26;20555;-72
2024/04/15 11:39:43;;;;;;;6.57;2.40;;;18.00;95.00;;;;;;5449854;26;20674;-76
2024/04/15 11:42:09;;;;;;;3.80;2.43;;;18.20;94.90;;;;;;5450716;26;20215;-75
2024/04/15 11:44:35;;;;;;;6.47;2.40;;;18.40;91.90;;;;;;5450412;26;20267;-74
2024/04/15 11:47:01;;;;;;;4.18;2.30;;;18.10;92.40;;;;;;5446914;26;20223;-73
2024/04/15 11:49:26;;;;;;;3.07;2.33;;;18.20;92.30;;;;;;5449332;26;20715;-75
2024/04/15 11:51:53;;;;;;;5.57;2.60;;;18.10;90.40;;;;;;5449836;26;20262;-75
2024/04/15 11:54:19;;;;;;;5.40;2.57;;;17.80;90.00;;;;;;5450113;26;20207;-75
2024/04/15 11:56:45;;;;;;;6.10;2.50;;;17.50;87.70;;;;;;5449212;26;20731;-70
2024/04/15 11:59:11;;;;;;;6.33;2.50;;;17.20;90.00;;;;;;5448679;26;20605;-70
2024/04/15 12:01:36;;;;;;;3.87;2.80;;;16.90;90.20;;;;;;5449227;26;20224;-74
2024/04/15 12:04:02;;;;;;;11.50;2.93;;;16.70;88.60;;;;;;5449077;26;20265;-72
2024/04/15 12:06:28;;;;;;;5.70;2.43;;;16.50;85.90;;;;;;5449233;26;20239;-75
2024/04/15 12:08:54;;;;;;;6.87;2.90;;;16.20;86.90;;;;;;5448637;26;20250;-71
2024/04/15 12:11:21;;;;;;;9.83;2.90;;;15.90;86.60;;;;;;5448659;26;20595;-68
2024/04/15 12:13:47;;;;;;;6.73;3.03;;;15.90;89.30;;;;;;5451594;26;20723;-69
2024/04/15 12:16:13;;;;;;;5.67;2.70;;;15.90;90.70;;;;;;5453146;26;20223;-73
2024/04/15 12:18:39;;;;;;;9.60;3.13;;;15.90;89.50;;;;;;5452719;26;20707;-70
2024/04/15 12:21:04;;;;;;;4.17;2.67;;;15.90;91.40;;;;;;5452460;26;20709;-68
2024/04/15 12:23:30;;;;;;;4.00;2.70;;;15.80;90.00;;;;;;5452449;26;20251;-70
2024/04/15 12:25:56;;;;;;;4.97;2.70;;;15.60;89.30;;;;;;5452320;26;20270;-69
2024/04/15 12:28:22;;;;;;;4.90;2.50;;;15.40;90.10;;;;;;5452561;26;20566;-70
2024/04/15 12:30:47;;;;;;;6.27;2.87;;;15.30;90.60;;;;;;5452266;26;20772;-71
2024/04/15 12:33:13;;;;;;;5.40;2.60;;;15.10;91.30;;;;;;5452667;26;20275;-74
2024/04/15 12:35:39;;;;;;;6.10;2.93;;;14.90;90.50;;;;;;5452402;26;20269;-70
2024/04/15 12:38:05;;;;;;;4.63;2.77;;;14.70;90.70;;;;;;5452616;26;20250;-69
2024/04/15 12:40:30;;;;;;;3.47;2.63;;;14.60;90.80;;;;;;5452176;26;20219;-72
2024/04/15 12:42:56;;;;;;;3.53;2.77;;;14.60;92.80;;;;;;5453066;26;20215;-73